createdAt,value
2022-08-28T00:00:09.426Z,10
2022-08-28T00:01:09.421Z,14
2022-08-28T00:02:09.354Z,9
2022-08-28T00:03:09.446Z,7
2022-08-28T00:04:09.341Z,7
2022-08-28T00:05:09.416Z,8
2022-08-28T00:06:09.471Z,5
2022-08-28T00:07:09.407Z,5
2022-08-28T00:08:09.434Z,6
2022-08-28T00:09:09.347Z,6
2022-08-28T00:10:09.433Z,8
2022-08-28T00:11:09.358Z,6
2022-08-28T00:12:09.346Z,5
2022-08-28T00:13:09.414Z,5
2022-08-28T00:14:09.399Z,4
2022-08-28T00:15:09.699Z,7
2022-08-28T00:16:09.499Z,5
2022-08-28T00:17:09.379Z,6
2022-08-28T00:18:09.401Z,8
2022-08-28T00:19:09.355Z,5
2022-08-28T00:20:09.386Z,7
2022-08-28T00:21:09.370Z,7
2022-08-28T00:22:09.365Z,5
2022-08-28T00:23:09.369Z,4
2022-08-28T00:24:09.346Z,6
2022-08-28T00:25:09.396Z,4
2022-08-28T00:26:09.352Z,5
2022-08-28T00:27:09.441Z,5
2022-08-28T00:28:09.387Z,6
2022-08-28T00:29:09.345Z,7
2022-08-28T00:30:09.349Z,5
2022-08-28T00:31:09.406Z,6
2022-08-28T00:32:09.346Z,8
2022-08-28T00:33:09.350Z,6
2022-08-28T00:34:09.448Z,7
2022-08-28T00:35:09.358Z,6
2022-08-28T00:36:09.417Z,5
2022-08-28T00:37:09.350Z,7
2022-08-28T00:38:09.372Z,8
2022-08-28T00:39:09.359Z,6
2022-08-28T00:40:09.412Z,6
2022-08-28T00:41:09.434Z,5
2022-08-28T00:42:09.364Z,7
2022-08-28T00:43:09.468Z,6
2022-08-28T00:44:09.365Z,6
2022-08-28T00:45:09.379Z,7
2022-08-28T00:46:09.437Z,4
2022-08-28T00:47:09.379Z,4
2022-08-28T00:48:09.557Z,7
2022-08-28T00:49:09.544Z,7
2022-08-28T00:50:09.790Z,4
2022-08-28T00:51:09.375Z,8
2022-08-28T00:52:11.792Z,8
2022-08-28T00:53:09.351Z,5
2022-08-28T00:54:09.371Z,5
2022-08-28T00:55:09.436Z,6
2022-08-28T00:56:13.339Z,5
2022-08-28T00:57:09.361Z,7
2022-08-28T00:58:09.418Z,7
2022-08-28T00:59:09.380Z,8
2022-08-28T01:00:09.376Z,5
2022-08-28T01:01:09.378Z,4
2022-08-28T01:02:09.412Z,5
2022-08-28T01:03:09.395Z,5
2022-08-28T01:04:09.366Z,6
2022-08-28T01:05:09.418Z,5
2022-08-28T01:06:09.371Z,6
2022-08-28T01:07:09.372Z,5
2022-08-28T01:08:09.514Z,5
2022-08-28T01:09:09.394Z,6
2022-08-28T01:10:09.381Z,7
2022-08-28T01:11:09.374Z,8
2022-08-28T01:12:09.440Z,4
2022-08-28T01:13:09.368Z,7
2022-08-28T01:14:09.360Z,5
2022-08-28T01:15:09.425Z,4
2022-08-28T01:16:09.552Z,6
2022-08-28T01:17:09.360Z,4
2022-08-28T01:18:09.531Z,6
2022-08-28T01:19:09.368Z,6
2022-08-28T01:20:09.375Z,5
2022-08-28T01:21:09.391Z,6
2022-08-28T01:22:09.434Z,4
2022-08-28T01:23:09.352Z,5
2022-08-28T01:24:09.370Z,7
2022-08-28T01:25:09.363Z,6
2022-08-28T01:26:11.639Z,4
2022-08-28T01:27:09.420Z,5
2022-08-28T01:28:09.421Z,9
2022-08-28T01:29:09.438Z,6
2022-08-28T01:30:09.359Z,4
2022-08-28T01:31:09.471Z,7
2022-08-28T01:32:09.372Z,7
2022-08-28T01:33:09.356Z,6
2022-08-28T01:34:09.391Z,6
2022-08-28T01:35:09.368Z,7
2022-08-28T01:36:09.455Z,4
2022-08-28T01:37:09.367Z,6
2022-08-28T01:38:09.552Z,5
2022-08-28T01:39:09.360Z,7
2022-08-28T01:40:09.509Z,5
2022-08-28T01:41:09.397Z,8
2022-08-28T01:42:09.399Z,6
2022-08-28T01:43:09.446Z,7
2022-08-28T01:44:09.368Z,9
2022-08-28T01:45:09.590Z,6
2022-08-28T01:46:09.502Z,4
2022-08-28T01:47:09.403Z,7
2022-08-28T01:48:09.488Z,7
2022-08-28T01:49:09.410Z,7
2022-08-28T01:50:09.442Z,5
2022-08-28T01:51:09.395Z,7
2022-08-28T01:52:09.385Z,5
2022-08-28T01:53:12.487Z,7
2022-08-28T01:54:09.782Z,7
2022-08-28T01:55:09.366Z,7
2022-08-28T01:56:09.390Z,6
2022-08-28T01:57:09.423Z,5
2022-08-28T01:58:09.507Z,4
2022-08-28T01:59:09.386Z,11
2022-08-28T02:00:09.369Z,5
2022-08-28T02:01:09.492Z,5
2022-08-28T02:02:09.484Z,5
2022-08-28T02:03:09.446Z,6
2022-08-28T02:04:09.468Z,5
2022-08-28T02:05:09.379Z,5
2022-08-28T02:06:09.393Z,10
2022-08-28T02:07:09.385Z,6
2022-08-28T02:08:09.554Z,5
2022-08-28T02:09:13.487Z,8
2022-08-28T02:10:09.418Z,6
2022-08-28T02:11:09.430Z,4
2022-08-28T02:12:09.376Z,5
2022-08-28T02:13:09.531Z,6
2022-08-28T02:14:09.389Z,3
2022-08-28T02:15:09.403Z,4
2022-08-28T02:16:09.479Z,6
2022-08-28T02:17:09.413Z,5
2022-08-28T02:18:09.634Z,5
2022-08-28T02:19:09.390Z,5
2022-08-28T02:20:09.378Z,5
2022-08-28T02:21:09.389Z,5
2022-08-28T02:22:09.459Z,6
2022-08-28T02:23:09.432Z,6
2022-08-28T02:24:09.417Z,8
2022-08-28T02:25:09.379Z,7
2022-08-28T02:26:09.383Z,6
2022-08-28T02:27:09.403Z,6
2022-08-28T02:28:09.588Z,5
2022-08-28T02:29:09.457Z,6
2022-08-28T02:30:09.382Z,6
2022-08-28T02:31:09.589Z,6
2022-08-28T02:32:09.385Z,9
2022-08-28T02:33:09.605Z,6
2022-08-28T02:34:09.378Z,6
2022-08-28T02:35:10.090Z,6
2022-08-28T02:36:09.390Z,6
2022-08-28T02:37:09.371Z,5
2022-08-28T02:38:09.658Z,5
2022-08-28T02:39:09.388Z,6
2022-08-28T02:40:09.530Z,6
2022-08-28T02:41:09.393Z,5
2022-08-28T02:42:09.447Z,5
2022-08-28T02:43:09.790Z,6
2022-08-28T02:44:09.461Z,5
2022-08-28T02:45:09.459Z,4
2022-08-28T02:46:09.553Z,5
2022-08-28T02:47:09.483Z,5
2022-08-28T02:48:17.025Z,5
2022-08-28T02:49:09.509Z,6
2022-08-28T02:50:09.395Z,4
2022-08-28T02:51:09.422Z,6
2022-08-28T02:52:09.515Z,3
2022-08-28T02:53:09.429Z,9
2022-08-28T02:54:09.430Z,6
2022-08-28T02:55:09.395Z,8
2022-08-28T02:56:09.455Z,5
2022-08-28T02:57:09.436Z,5
2022-08-28T02:58:09.558Z,7
2022-08-28T02:59:09.454Z,9
2022-08-28T03:00:09.469Z,4
2022-08-28T03:01:09.470Z,4
2022-08-28T03:02:09.523Z,6
2022-08-28T03:03:09.497Z,5
2022-08-28T03:04:09.488Z,6
2022-08-28T03:05:09.480Z,5
2022-08-28T03:06:09.515Z,7
2022-08-28T03:07:09.394Z,5
2022-08-28T03:08:09.445Z,6
2022-08-28T03:09:09.409Z,7
2022-08-28T03:10:09.427Z,6
2022-08-28T03:11:09.411Z,7
2022-08-28T03:12:09.530Z,5
2022-08-28T03:13:09.452Z,4
2022-08-28T03:14:09.447Z,7
2022-08-28T03:15:09.450Z,9
2022-08-28T03:16:09.474Z,6
2022-08-28T03:17:09.459Z,4
2022-08-28T03:18:11.184Z,5
2022-08-28T03:19:09.478Z,7
2022-08-28T03:20:09.386Z,3
2022-08-28T03:21:09.403Z,5
2022-08-28T03:22:09.496Z,6
2022-08-28T03:23:09.417Z,4
2022-08-28T03:24:09.689Z,6
2022-08-28T03:25:09.617Z,6
2022-08-28T03:26:09.545Z,6
2022-08-28T03:27:09.428Z,7
2022-08-28T03:28:09.536Z,5
2022-08-28T03:29:09.441Z,7
2022-08-28T03:30:09.454Z,7
2022-08-28T03:31:09.552Z,7
2022-08-28T03:32:09.391Z,5
2022-08-28T03:33:09.569Z,6
2022-08-28T03:34:09.490Z,7
2022-08-28T03:35:09.483Z,4
2022-08-28T03:36:09.405Z,6
2022-08-28T03:37:09.418Z,9
2022-08-28T03:38:09.589Z,5
2022-08-28T03:39:09.399Z,8
2022-08-28T03:40:09.588Z,5
2022-08-28T03:41:09.426Z,5
2022-08-28T03:42:09.515Z,6
2022-08-28T03:43:09.451Z,5
2022-08-28T03:44:09.389Z,7
2022-08-28T03:45:09.387Z,4
2022-08-28T03:46:09.531Z,8
2022-08-28T03:47:09.447Z,5
2022-08-28T03:48:09.509Z,7
2022-08-28T03:49:09.494Z,7
2022-08-28T03:50:10.381Z,6
2022-08-28T03:51:09.411Z,7
2022-08-28T03:52:09.395Z,6
2022-08-28T03:53:09.495Z,7
2022-08-28T03:54:09.460Z,6
2022-08-28T03:55:09.460Z,7
2022-08-28T03:56:09.441Z,7
2022-08-28T03:57:09.396Z,5
2022-08-28T03:58:09.529Z,7
2022-08-28T03:59:09.412Z,8
2022-08-28T04:00:09.457Z,7
2022-08-28T04:01:09.681Z,7
2022-08-28T04:02:09.446Z,8
2022-08-28T04:03:09.455Z,5
2022-08-28T04:04:09.460Z,7
2022-08-28T04:05:09.414Z,4
2022-08-28T04:06:09.486Z,8
2022-08-28T04:07:09.482Z,6
2022-08-28T04:08:09.531Z,4
2022-08-28T04:09:09.402Z,5
2022-08-28T04:10:09.399Z,6
2022-08-28T04:11:09.521Z,8
2022-08-28T04:12:09.406Z,8
2022-08-28T04:13:09.437Z,7
2022-08-28T04:14:09.527Z,6
2022-08-28T04:15:09.479Z,6
2022-08-28T04:16:09.469Z,9
2022-08-28T04:17:09.429Z,4
2022-08-28T04:18:09.485Z,6
2022-08-28T04:19:09.447Z,7
2022-08-28T04:20:09.470Z,6
2022-08-28T04:21:09.495Z,9
2022-08-28T04:22:09.441Z,8
2022-08-28T04:23:09.418Z,9
2022-08-28T04:24:09.960Z,7
2022-08-28T04:25:09.463Z,8
2022-08-28T04:26:09.523Z,5
2022-08-28T04:27:09.509Z,5
2022-08-28T04:28:09.571Z,5
2022-08-28T04:29:09.428Z,5
2022-08-28T04:30:09.853Z,6
2022-08-28T04:31:09.419Z,8
2022-08-28T04:32:09.493Z,10
2022-08-28T04:33:09.415Z,6
2022-08-28T04:34:09.446Z,9
2022-08-28T04:35:09.558Z,7
2022-08-28T04:36:09.406Z,8
2022-08-28T04:37:09.459Z,7
2022-08-28T04:38:09.470Z,6
2022-08-28T04:39:09.407Z,9
2022-08-28T04:40:09.469Z,5
2022-08-28T04:41:09.515Z,6
2022-08-28T04:42:09.465Z,7
2022-08-28T04:43:09.417Z,6
2022-08-28T04:44:09.509Z,9
2022-08-28T04:45:09.417Z,5
2022-08-28T04:46:09.626Z,5
2022-08-28T04:47:09.398Z,7
2022-08-28T04:48:10.460Z,6
2022-08-28T04:49:09.471Z,7
2022-08-28T04:50:09.415Z,6
2022-08-28T04:51:09.446Z,8
2022-08-28T04:52:09.466Z,6
2022-08-28T04:53:09.410Z,6
2022-08-28T04:54:09.478Z,4
2022-08-28T04:55:09.415Z,9
2022-08-28T04:56:09.489Z,4
2022-08-28T04:57:09.513Z,7
2022-08-28T04:58:09.510Z,6
2022-08-28T04:59:09.423Z,7
2022-08-28T05:00:09.425Z,9
2022-08-28T05:01:09.507Z,7
2022-08-28T05:02:09.600Z,9
2022-08-28T05:03:09.443Z,6
2022-08-28T05:04:09.427Z,8
2022-08-28T05:05:09.442Z,6
2022-08-28T05:06:09.463Z,8
2022-08-28T05:07:09.473Z,7
2022-08-28T05:08:09.495Z,6
2022-08-28T05:09:09.444Z,6
2022-08-28T05:10:09.469Z,7
2022-08-28T05:11:09.500Z,12
2022-08-28T05:12:09.483Z,7
2022-08-28T05:13:09.414Z,9
2022-08-28T05:14:11.617Z,10
2022-08-28T05:15:09.510Z,7
2022-08-28T05:16:09.597Z,11
2022-08-28T05:17:09.518Z,8
2022-08-28T05:18:09.526Z,6
2022-08-28T05:19:09.520Z,8
2022-08-28T05:20:09.444Z,5
2022-08-28T05:21:13.848Z,7
2022-08-28T05:22:09.422Z,9
2022-08-28T05:23:09.588Z,9
2022-08-28T05:24:09.490Z,11
2022-08-28T05:25:09.946Z,9
2022-08-28T05:26:09.436Z,7
2022-08-28T05:27:09.469Z,9
2022-08-28T05:28:09.899Z,7
2022-08-28T05:29:09.484Z,9
2022-08-28T05:30:09.505Z,9
2022-08-28T05:31:09.498Z,8
2022-08-28T05:32:09.511Z,6
2022-08-28T05:33:09.525Z,9
2022-08-28T05:34:09.423Z,6
2022-08-28T05:35:09.422Z,7
2022-08-28T05:36:09.561Z,8
2022-08-28T05:37:09.543Z,5
2022-08-28T05:38:09.506Z,10
2022-08-28T05:39:09.484Z,9
2022-08-28T05:40:09.502Z,8
2022-08-28T05:41:09.506Z,8
2022-08-28T05:42:09.473Z,10
2022-08-28T05:43:09.477Z,11
2022-08-28T05:44:09.483Z,7
2022-08-28T05:45:09.499Z,13
2022-08-28T05:46:09.531Z,6
2022-08-28T05:47:09.510Z,8
2022-08-28T05:48:09.624Z,9
2022-08-28T05:49:10.386Z,8
2022-08-28T05:50:09.417Z,6
2022-08-28T05:51:09.488Z,7
2022-08-28T05:52:09.458Z,8
2022-08-28T05:53:09.459Z,10
2022-08-28T05:54:09.463Z,10
2022-08-28T05:55:09.458Z,8
2022-08-28T05:56:09.484Z,9
2022-08-28T05:57:09.479Z,9
2022-08-28T05:58:09.484Z,12
2022-08-28T05:59:09.484Z,10
2022-08-28T06:00:09.406Z,7
2022-08-28T06:01:09.452Z,8
2022-08-28T06:02:09.447Z,10
2022-08-28T06:03:09.516Z,7
2022-08-28T06:04:09.605Z,11
2022-08-28T06:05:09.521Z,12
2022-08-28T06:06:09.542Z,11
2022-08-28T06:07:09.436Z,10
2022-08-28T06:08:09.479Z,9
2022-08-28T06:09:09.437Z,9
2022-08-28T06:10:10.542Z,9
2022-08-28T06:11:09.511Z,10
2022-08-28T06:12:09.466Z,12
2022-08-28T06:13:09.420Z,14
2022-08-28T06:14:09.469Z,8
2022-08-28T06:15:09.487Z,9
2022-08-28T06:16:09.553Z,8
2022-08-28T06:17:09.502Z,10
2022-08-28T06:18:09.511Z,13
2022-08-28T06:19:09.503Z,12
2022-08-28T06:20:09.515Z,12
2022-08-28T06:21:09.491Z,9
2022-08-28T06:22:09.532Z,9
2022-08-28T06:23:09.451Z,9
2022-08-28T06:24:09.576Z,12
2022-08-28T06:25:09.554Z,11
2022-08-28T06:26:09.471Z,8
2022-08-28T06:27:09.566Z,10
2022-08-28T06:28:09.505Z,8
2022-08-28T06:29:09.501Z,11
2022-08-28T06:30:09.481Z,11
2022-08-28T06:31:24.696Z,10
2022-08-28T06:32:09.546Z,11
2022-08-28T06:33:09.433Z,10
2022-08-28T06:34:09.605Z,9
2022-08-28T06:35:09.517Z,9
2022-08-28T06:36:09.444Z,10
2022-08-28T06:37:09.531Z,13
2022-08-28T06:38:09.540Z,10
2022-08-28T06:39:09.540Z,12
2022-08-28T06:40:09.493Z,11
2022-08-28T06:41:09.464Z,11
2022-08-28T06:42:09.448Z,10
2022-08-28T06:43:09.467Z,8
2022-08-28T06:44:09.433Z,11
2022-08-28T06:45:09.425Z,9
2022-08-28T06:46:09.729Z,14
2022-08-28T06:47:09.420Z,9
2022-08-28T06:48:09.565Z,10
2022-08-28T06:49:09.507Z,8
2022-08-28T06:50:09.518Z,11
2022-08-28T06:51:09.490Z,10
2022-08-28T06:52:09.619Z,11
2022-08-28T06:53:09.526Z,9
2022-08-28T06:54:09.530Z,13
2022-08-28T06:55:09.440Z,10
2022-08-28T06:56:09.572Z,12
2022-08-28T06:57:09.423Z,11
2022-08-28T06:58:09.456Z,10
2022-08-28T06:59:09.586Z,10
2022-08-28T07:00:09.474Z,12
2022-08-28T07:01:09.568Z,9
2022-08-28T07:02:09.631Z,10
2022-08-28T07:03:09.489Z,15
2022-08-28T07:04:09.492Z,12
2022-08-28T07:05:09.502Z,12
2022-08-28T07:06:09.515Z,8
2022-08-28T07:07:09.517Z,9
2022-08-28T07:08:09.521Z,10
2022-08-28T07:09:09.515Z,9
2022-08-28T07:10:09.455Z,11
2022-08-28T07:11:09.471Z,11
2022-08-28T07:12:09.554Z,9
2022-08-28T07:13:09.561Z,10
2022-08-28T07:14:09.462Z,9
2022-08-28T07:15:09.466Z,13
2022-08-28T07:16:09.535Z,12
2022-08-28T07:17:09.500Z,11
2022-08-28T07:18:09.480Z,8
2022-08-28T07:19:10.609Z,10
2022-08-28T07:20:09.608Z,12
2022-08-28T07:21:12.451Z,9
2022-08-28T07:22:09.518Z,13
2022-08-28T07:23:09.514Z,11
2022-08-28T07:24:09.456Z,11
2022-08-28T07:25:09.537Z,12
2022-08-28T07:26:09.528Z,12
2022-08-28T07:27:09.560Z,9
2022-08-28T07:28:09.483Z,11
2022-08-28T07:29:11.442Z,10
2022-08-28T07:30:09.461Z,10
2022-08-28T07:31:09.496Z,10
2022-08-28T07:32:09.498Z,9
2022-08-28T07:33:09.482Z,11
2022-08-28T07:34:09.572Z,10
2022-08-28T07:35:09.491Z,13
2022-08-28T07:36:15.749Z,8
2022-08-28T07:37:13.420Z,9
2022-08-28T07:38:09.494Z,9
2022-08-28T07:39:09.520Z,11
2022-08-28T07:40:09.471Z,12
2022-08-28T07:41:09.521Z,10
2022-08-28T07:42:09.542Z,11
2022-08-28T07:43:09.556Z,12
2022-08-28T07:44:09.455Z,11
2022-08-28T07:45:09.446Z,9
2022-08-28T07:46:09.510Z,12
2022-08-28T07:47:09.580Z,10
2022-08-28T07:48:11.621Z,10
2022-08-28T07:49:09.478Z,11
2022-08-28T07:50:09.453Z,8
2022-08-28T07:51:09.513Z,11
2022-08-28T07:52:09.515Z,15
2022-08-28T07:53:09.505Z,9
2022-08-28T07:54:11.596Z,11
2022-08-28T07:55:09.513Z,9
2022-08-28T07:56:09.518Z,11
2022-08-28T07:57:09.448Z,11
2022-08-28T07:58:09.536Z,9
2022-08-28T07:59:09.560Z,8
2022-08-28T08:00:09.544Z,11
2022-08-28T08:01:09.580Z,10
2022-08-28T08:02:09.442Z,10
2022-08-28T08:03:09.552Z,12
2022-08-28T08:04:09.467Z,12
2022-08-28T08:05:09.487Z,10
2022-08-28T08:06:09.576Z,11
2022-08-28T08:07:09.493Z,12
2022-08-28T08:08:09.530Z,8
2022-08-28T08:09:09.488Z,11
2022-08-28T08:10:09.510Z,11
2022-08-28T08:11:10.705Z,12
2022-08-28T08:12:10.339Z,11
2022-08-28T08:13:09.524Z,8
2022-08-28T08:14:09.544Z,9
2022-08-28T08:15:09.546Z,10
2022-08-28T08:16:09.637Z,8
2022-08-28T08:17:09.567Z,11
2022-08-28T08:18:09.456Z,11
2022-08-28T08:19:09.452Z,8
2022-08-28T08:20:09.446Z,9
2022-08-28T08:21:09.441Z,11
2022-08-28T08:22:09.598Z,14
2022-08-28T08:23:09.482Z,10
2022-08-28T08:24:09.540Z,11
2022-08-28T08:25:09.502Z,11
2022-08-28T08:26:09.441Z,12
2022-08-28T08:27:09.779Z,11
2022-08-28T08:28:09.536Z,14
2022-08-28T08:29:09.512Z,9
2022-08-28T08:30:09.440Z,14
2022-08-28T08:31:09.518Z,10
2022-08-28T08:32:09.475Z,10
2022-08-28T08:33:09.462Z,11
2022-08-28T08:34:09.454Z,11
2022-08-28T08:35:09.446Z,10
2022-08-28T08:36:09.501Z,12
2022-08-28T08:37:09.464Z,10
2022-08-28T08:38:09.445Z,9
2022-08-28T08:39:09.653Z,11
2022-08-28T08:40:10.821Z,15
2022-08-28T08:41:09.442Z,11
2022-08-28T08:42:09.509Z,14
2022-08-28T08:43:09.489Z,10
2022-08-28T08:44:09.455Z,8
2022-08-28T08:45:09.502Z,10
2022-08-28T08:46:09.495Z,8
2022-08-28T08:47:13.782Z,12
2022-08-28T08:48:09.566Z,11
2022-08-28T08:49:09.548Z,12
2022-08-28T08:50:09.594Z,10
2022-08-28T08:51:09.450Z,14
2022-08-28T08:52:09.593Z,14
2022-08-28T08:53:09.487Z,10
2022-08-28T08:54:09.582Z,8
2022-08-28T08:55:09.450Z,9
2022-08-28T08:56:09.595Z,11
2022-08-28T08:57:09.507Z,14
2022-08-28T08:58:09.507Z,13
2022-08-28T08:59:09.472Z,8
2022-08-28T09:00:13.677Z,11
2022-08-28T09:01:09.632Z,12
2022-08-28T09:02:09.454Z,10
2022-08-28T09:03:09.593Z,11
2022-08-28T09:04:09.466Z,11
2022-08-28T09:05:09.463Z,10
2022-08-28T09:06:09.454Z,12
2022-08-28T09:07:09.474Z,8
2022-08-28T09:08:09.548Z,10
2022-08-28T09:09:09.447Z,10
2022-08-28T09:10:09.579Z,10
2022-08-28T09:11:09.480Z,11
2022-08-28T09:12:09.600Z,8
2022-08-28T09:13:09.452Z,10
2022-08-28T09:14:09.463Z,12
2022-08-28T09:15:09.460Z,10
2022-08-28T09:16:09.564Z,12
2022-08-28T09:17:09.541Z,11
2022-08-28T09:18:09.777Z,11
2022-08-28T09:19:09.641Z,13
2022-08-28T09:20:09.552Z,11
2022-08-28T09:21:09.553Z,12
2022-08-28T09:22:09.582Z,8
2022-08-28T09:23:12.419Z,10
2022-08-28T09:24:11.049Z,11
2022-08-28T09:25:09.451Z,9
2022-08-28T09:26:09.478Z,10
2022-08-28T09:27:14.167Z,8
2022-08-28T09:28:09.560Z,13
2022-08-28T09:29:09.512Z,11
2022-08-28T09:30:09.616Z,12
2022-08-28T09:31:09.660Z,13
2022-08-28T09:32:09.466Z,10
2022-08-28T09:33:09.531Z,11
2022-08-28T09:34:09.527Z,12
2022-08-28T09:35:09.561Z,9
2022-08-28T09:36:09.568Z,11
2022-08-28T09:37:09.511Z,13
2022-08-28T09:38:09.557Z,13
2022-08-28T09:39:09.475Z,11
2022-08-28T09:40:09.504Z,9
2022-08-28T09:41:09.459Z,11
2022-08-28T09:42:09.499Z,9
2022-08-28T09:43:09.488Z,9
2022-08-28T09:44:09.637Z,12
2022-08-28T09:45:09.801Z,8
2022-08-28T09:46:09.544Z,7
2022-08-28T09:47:09.531Z,10
2022-08-28T09:48:09.527Z,10
2022-08-28T09:49:09.529Z,9
2022-08-28T09:50:09.529Z,10
2022-08-28T09:51:09.545Z,12
2022-08-28T09:52:09.476Z,11
2022-08-28T09:53:09.450Z,9
2022-08-28T09:54:09.456Z,12
2022-08-28T09:55:09.561Z,12
2022-08-28T09:56:09.465Z,9
2022-08-28T09:57:09.499Z,7
2022-08-28T09:58:09.699Z,8
2022-08-28T09:59:09.514Z,8
2022-08-28T10:00:09.506Z,12
2022-08-28T10:01:09.602Z,8
2022-08-28T10:02:09.572Z,11
2022-08-28T10:03:09.511Z,11
2022-08-28T10:04:09.574Z,10
2022-08-28T10:05:09.541Z,12
2022-08-28T10:06:09.532Z,9
2022-08-28T10:07:09.568Z,11
2022-08-28T10:08:09.511Z,10
2022-08-28T10:09:09.554Z,6
2022-08-28T10:10:09.570Z,11
2022-08-28T10:11:09.571Z,9
2022-08-28T10:12:09.605Z,9
2022-08-28T10:13:09.489Z,9
2022-08-28T10:14:09.606Z,9
2022-08-28T10:15:09.484Z,7
2022-08-28T10:16:09.583Z,7
2022-08-28T10:17:09.531Z,9
2022-08-28T10:18:09.510Z,9
2022-08-28T10:19:09.531Z,9
2022-08-28T10:20:09.517Z,10
2022-08-28T10:21:09.523Z,11
2022-08-28T10:22:09.681Z,7
2022-08-28T10:23:09.543Z,6
2022-08-28T10:24:09.547Z,8
2022-08-28T10:25:09.548Z,12
2022-08-28T10:26:09.552Z,9
2022-08-28T10:27:10.027Z,11
2022-08-28T10:28:09.583Z,7
2022-08-28T10:29:09.479Z,8
2022-08-28T10:30:13.111Z,10
2022-08-28T10:31:09.560Z,8
2022-08-28T10:32:09.526Z,8
2022-08-28T10:33:09.613Z,7
2022-08-28T10:34:09.520Z,9
2022-08-28T10:35:09.503Z,9
2022-08-28T10:36:09.542Z,8
2022-08-28T10:37:09.565Z,8
2022-08-28T10:38:09.700Z,9
2022-08-28T10:39:09.658Z,8
2022-08-28T10:40:09.659Z,8
2022-08-28T10:41:09.474Z,10
2022-08-28T10:42:09.480Z,8
2022-08-28T10:43:09.469Z,6
2022-08-28T10:44:09.605Z,8
2022-08-28T10:45:09.520Z,6
2022-08-28T10:46:09.597Z,9
2022-08-28T10:47:09.511Z,5
2022-08-28T10:48:09.563Z,9
2022-08-28T10:49:09.468Z,10
2022-08-28T10:50:09.458Z,6
2022-08-28T10:51:09.616Z,9
2022-08-28T10:52:09.477Z,8
2022-08-28T10:53:09.544Z,8
2022-08-28T10:54:09.533Z,7
2022-08-28T10:55:09.485Z,7
2022-08-28T10:56:09.469Z,8
2022-08-28T10:57:09.563Z,8
2022-08-28T10:58:24.116Z,13
2022-08-28T10:59:09.521Z,8
2022-08-28T11:00:09.574Z,8
2022-08-28T11:01:09.575Z,9
2022-08-28T11:02:09.623Z,10
2022-08-28T11:03:27.041Z,7
2022-08-28T11:04:09.485Z,10
2022-08-28T11:05:09.502Z,6
2022-08-28T11:06:09.476Z,8
2022-08-28T11:07:09.546Z,7
2022-08-28T11:08:09.594Z,7
2022-08-28T11:09:09.533Z,8
2022-08-28T11:10:09.540Z,5
2022-08-28T11:11:09.499Z,10
2022-08-28T11:12:09.550Z,8
2022-08-28T11:13:09.485Z,8
2022-08-28T11:14:09.592Z,8
2022-08-28T11:15:09.568Z,7
2022-08-28T11:16:09.587Z,8
2022-08-28T11:17:09.611Z,6
2022-08-28T11:18:09.583Z,7
2022-08-28T11:19:09.591Z,10
2022-08-28T11:20:09.519Z,6
2022-08-28T11:21:09.585Z,9
2022-08-28T11:22:09.550Z,7
2022-08-28T11:23:09.629Z,8
2022-08-28T11:24:09.641Z,6
2022-08-28T11:25:10.713Z,5
2022-08-28T11:26:09.471Z,9
2022-08-28T11:27:09.556Z,7
2022-08-28T11:28:09.520Z,6
2022-08-28T11:29:09.575Z,6
2022-08-28T11:30:09.560Z,7
2022-08-28T11:31:09.574Z,7
2022-08-28T11:32:09.586Z,10
2022-08-28T11:33:09.589Z,5
2022-08-28T11:34:09.516Z,6
2022-08-28T11:35:09.605Z,5
2022-08-28T11:36:09.489Z,7
2022-08-28T11:37:09.521Z,7
2022-08-28T11:38:09.612Z,10
2022-08-28T11:39:09.615Z,6
2022-08-28T11:40:09.536Z,9
2022-08-28T11:41:09.558Z,7
2022-08-28T11:42:09.492Z,7
2022-08-28T11:43:09.552Z,8
2022-08-28T11:44:09.569Z,6
2022-08-28T11:45:09.548Z,7
2022-08-28T11:46:09.530Z,9
2022-08-28T11:47:09.596Z,8
2022-08-28T11:48:09.587Z,8
2022-08-28T11:49:09.573Z,10
2022-08-28T11:50:09.693Z,11
2022-08-28T11:51:09.523Z,8
2022-08-28T11:52:09.508Z,7
2022-08-28T11:53:09.495Z,8
2022-08-28T11:54:09.609Z,5
2022-08-28T11:55:09.641Z,8
2022-08-28T11:56:09.517Z,5
2022-08-28T11:57:09.540Z,10
2022-08-28T11:59:09.896Z,10
2022-08-28T12:00:09.485Z,4
2022-08-28T12:01:09.542Z,5
2022-08-28T12:02:09.583Z,7
2022-08-28T12:03:09.670Z,7
2022-08-28T12:04:09.592Z,6
2022-08-28T12:05:09.583Z,8
2022-08-28T12:06:09.535Z,7
2022-08-28T12:07:09.633Z,8
2022-08-28T12:08:09.596Z,6
2022-08-28T12:09:09.585Z,9
2022-08-28T12:10:09.503Z,10
2022-08-28T12:11:09.510Z,8
2022-08-28T12:12:09.622Z,11
2022-08-28T12:13:09.588Z,6
2022-08-28T12:14:09.547Z,6
2022-08-28T12:15:09.554Z,6
2022-08-28T12:16:09.618Z,6
2022-08-28T12:17:09.938Z,6
2022-08-28T12:18:09.571Z,5
2022-08-28T12:19:09.478Z,5
2022-08-28T12:20:09.487Z,7
2022-08-28T12:21:09.577Z,6
2022-08-28T12:22:09.616Z,7
2022-08-28T12:23:09.634Z,7
2022-08-28T12:24:10.026Z,6
2022-08-28T12:25:09.519Z,6
2022-08-28T12:26:09.521Z,5
2022-08-28T12:27:09.521Z,5
2022-08-28T12:28:13.022Z,7
2022-08-28T12:29:09.657Z,8
2022-08-28T12:30:09.543Z,4
2022-08-28T12:31:09.614Z,9
2022-08-28T12:32:09.500Z,6
2022-08-28T12:33:09.469Z,6
2022-08-28T12:34:09.565Z,6
2022-08-28T12:35:09.625Z,5
2022-08-28T12:36:09.579Z,5
2022-08-28T12:37:09.511Z,5
2022-08-28T12:38:09.578Z,8
2022-08-28T12:39:09.500Z,4
2022-08-28T12:40:09.746Z,6
2022-08-28T12:41:09.506Z,6
2022-08-28T12:42:09.572Z,6
2022-08-28T12:43:09.556Z,5
2022-08-28T12:44:09.541Z,10
2022-08-28T12:45:09.545Z,7
2022-08-28T12:46:19.773Z,6
2022-08-28T12:47:09.681Z,6
2022-08-28T12:48:09.538Z,6
2022-08-28T12:49:09.657Z,7
2022-08-28T12:50:09.563Z,8
2022-08-28T12:51:09.597Z,4
2022-08-28T12:52:09.588Z,6
2022-08-28T12:53:09.789Z,8
2022-08-28T12:54:09.492Z,6
2022-08-28T12:55:09.575Z,4
2022-08-28T12:56:09.593Z,5
2022-08-28T12:57:09.529Z,7
2022-08-28T12:58:09.611Z,7
2022-08-28T12:59:09.515Z,5
2022-08-28T13:00:09.527Z,6
2022-08-28T13:01:09.713Z,5
2022-08-28T13:02:09.844Z,6
2022-08-28T13:03:09.604Z,6
2022-08-28T13:04:09.543Z,6
2022-08-28T13:05:09.549Z,6
2022-08-28T13:06:09.716Z,5
2022-08-28T13:07:09.517Z,5
2022-08-28T13:08:09.582Z,7
2022-08-28T13:09:09.571Z,6
2022-08-28T13:10:09.587Z,6
2022-08-28T13:11:09.595Z,5
2022-08-28T13:12:09.613Z,8
2022-08-28T13:13:09.514Z,4
2022-08-28T13:14:09.499Z,6
2022-08-28T13:15:09.640Z,6
2022-08-28T13:16:09.758Z,4
2022-08-28T13:17:09.551Z,4
2022-08-28T13:18:09.512Z,8
2022-08-28T13:19:09.551Z,6
2022-08-28T13:20:09.655Z,5
2022-08-28T13:21:09.554Z,7
2022-08-28T13:22:09.683Z,6
2022-08-28T13:23:09.626Z,3
2022-08-28T13:24:09.521Z,5
2022-08-28T13:25:09.560Z,4
2022-08-28T13:26:09.511Z,4
2022-08-28T13:27:09.615Z,5
2022-08-28T13:28:09.611Z,3
2022-08-28T13:29:09.624Z,5
2022-08-28T13:30:09.626Z,4
2022-08-28T13:31:09.591Z,6
2022-08-28T13:32:09.518Z,4
2022-08-28T13:33:09.573Z,5
2022-08-28T13:34:09.536Z,5
2022-08-28T13:35:09.542Z,7
2022-08-28T13:36:09.657Z,8
2022-08-28T13:37:14.641Z,8
2022-08-28T13:38:09.560Z,4
2022-08-28T13:39:09.566Z,8
2022-08-28T13:40:24.458Z,7
2022-08-28T13:41:09.603Z,6
2022-08-28T13:42:09.607Z,6
2022-08-28T13:43:11.165Z,6
2022-08-28T13:44:09.498Z,5
2022-08-28T13:45:09.619Z,5
2022-08-28T13:46:09.647Z,4
2022-08-28T13:47:09.642Z,8
2022-08-28T13:48:09.523Z,4
2022-08-28T13:49:09.636Z,5
2022-08-28T13:50:09.642Z,5
2022-08-28T13:51:10.783Z,5
2022-08-28T13:52:09.606Z,5
2022-08-28T13:53:09.565Z,6
2022-08-28T13:54:09.583Z,4
2022-08-28T13:55:09.519Z,4
2022-08-28T13:56:09.629Z,6
2022-08-28T13:57:09.687Z,4
2022-08-28T13:58:09.533Z,5
2022-08-28T13:59:09.737Z,6
2022-08-28T14:00:09.626Z,5
2022-08-28T14:01:09.779Z,6
2022-08-28T14:02:09.812Z,5
2022-08-28T14:03:09.642Z,4
2022-08-28T14:04:09.844Z,5
2022-08-28T14:05:09.936Z,4
2022-08-28T14:06:09.797Z,3
2022-08-28T14:07:09.858Z,3
2022-08-28T14:08:09.932Z,5
2022-08-28T14:09:09.971Z,4
2022-08-28T14:10:09.842Z,7
2022-08-28T14:11:12.529Z,4
2022-08-28T14:12:09.678Z,5
2022-08-28T14:13:09.697Z,6
2022-08-28T14:14:09.587Z,5
2022-08-28T14:15:09.609Z,7
2022-08-28T14:16:09.658Z,6
2022-08-28T14:17:09.649Z,5
2022-08-28T14:18:09.630Z,5
2022-08-28T14:19:09.621Z,5
2022-08-28T14:20:09.521Z,6
2022-08-28T14:21:09.528Z,7
2022-08-28T14:22:09.540Z,7
2022-08-28T14:23:11.370Z,4
2022-08-28T14:24:09.656Z,4
2022-08-28T14:25:09.564Z,4
2022-08-28T14:26:09.533Z,7
2022-08-28T14:27:09.686Z,6
2022-08-28T14:28:09.619Z,7
2022-08-28T14:29:09.531Z,6
2022-08-28T14:30:09.723Z,5
2022-08-28T14:31:14.192Z,4
2022-08-28T14:32:09.644Z,4
2022-08-28T14:33:09.708Z,4
2022-08-28T14:34:09.523Z,6
2022-08-28T14:35:09.511Z,5
2022-08-28T14:36:09.625Z,5
2022-08-28T14:37:09.572Z,5
2022-08-28T14:38:09.668Z,6
2022-08-28T14:39:09.546Z,6
2022-08-28T14:40:09.695Z,5